sensor_id;sensor_type;location;lat;lon;timestamp;pressure;altitude;pressure_sealevel;temperature;humidity
26807;BME280;14380;49.910;6.792;2022-07-29T00:00:37;98648.16;;;19.57;78.02
26807;BME280;14380;49.910;6.792;2022-07-29T00:03:03;98640.28;;;19.45;78.24
26807;BME280;14380;49.910;6.792;2022-07-29T00:05:30;98645.13;;;19.32;80.13
26807;BME280;14380;49.910;6.792;2022-07-29T00:07:58;98645.31;;;19.11;81.27
26807;BME280;14380;49.910;6.792;2022-07-29T00:10:25;98642.06;;;19.17;80.27
26807;BME280;14380;49.910;6.792;2022-07-29T00:12:51;98639.09;;;19.20;81.35
26807;BME280;14380;49.910;6.792;2022-07-29T00:15:18;98631.09;;;19.00;82.20
26807;BME280;14380;49.910;6.792;2022-07-29T00:17:45;98629.22;;;19.01;81.80
26807;BME280;14380;49.910;6.792;2022-07-29T00:20:11;98634.19;;;18.96;82.04
26807;BME280;14380;49.910;6.792;2022-07-29T00:22:38;98634.28;;;18.94;82.10
26807;BME280;14380;49.910;6.792;2022-07-29T00:25:07;98634.56;;;18.91;81.22
26807;BME280;14380;49.910;6.792;2022-07-29T00:27:34;98632.63;;;18.73;82.93
26807;BME280;14380;49.910;6.792;2022-07-29T00:30:02;98620.63;;;18.68;82.36
26807;BME280;14380;49.910;6.792;2022-07-29T00:32:28;98632.75;;;18.62;81.65
26807;BME280;14380;49.910;6.792;2022-07-29T00:34:55;98633.44;;;18.64;80.88
26807;BME280;14380;49.910;6.792;2022-07-29T00:37:40;98637.50;;;18.49;81.49
26807;BME280;14380;49.910;6.792;2022-07-29T00:40:09;98632.16;;;18.49;81.09
26807;BME280;14380;49.910;6.792;2022-07-29T00:42:41;98624.84;;;18.61;79.97
26807;BME280;14380;49.910;6.792;2022-07-29T00:45:09;98623.75;;;18.63;79.79
26807;BME280;14380;49.910;6.792;2022-07-29T00:47:36;98617.69;;;18.71;78.95
26807;BME280;14380;49.910;6.792;2022-07-29T00:50:04;98622.28;;;18.30;82.62
26807;BME280;14380;49.910;6.792;2022-07-29T00:52:31;98620.31;;;18.22;83.18
26807;BME280;14380;49.910;6.792;2022-07-29T00:54:58;98621.41;;;18.19;84.98
26807;BME280;14380;49.910;6.792;2022-07-29T00:57:26;98616.59;;;18.03;84.94
26807;BME280;14380;49.910;6.792;2022-07-29T00:59:53;98617.09;;;18.28;82.54
26807;BME280;14380;49.910;6.792;2022-07-29T01:02:20;98619.06;;;18.26;82.90
26807;BME280;14380;49.910;6.792;2022-07-29T01:04:46;98612.03;;;18.25;83.36
26807;BME280;14380;49.910;6.792;2022-07-29T01:07:13;98606.69;;;18.35;82.70
26807;BME280;14380;49.910;6.792;2022-07-29T01:09:42;98606.97;;;18.41;80.72
26807;BME280;14380;49.910;6.792;2022-07-29T01:12:10;98607.66;;;18.34;81.09
26807;BME280;14380;49.910;6.792;2022-07-29T01:14:40;98609.72;;;18.10;81.78
26807;BME280;14380;49.910;6.792;2022-07-29T01:17:11;98606.09;;;18.21;81.55
26807;BME280;14380;49.910;6.792;2022-07-29T01:19:48;98603.44;;;17.90;83.91
26807;BME280;14380;49.910;6.792;2022-07-29T01:22:25;98604.34;;;17.69;85.40
26807;BME280;14380;49.910;6.792;2022-07-29T01:25:12;98601.94;;;17.66;85.91
26807;BME280;14380;49.910;6.792;2022-07-29T01:28:08;98598.16;;;17.59;85.79
26807;BME280;14380;49.910;6.792;2022-07-29T01:30:42;98590.44;;;17.66;85.48
26807;BME280;14380;49.910;6.792;2022-07-29T01:33:13;98590.88;;;17.71;84.49
26807;BME280;14380;49.910;6.792;2022-07-29T01:36:07;98598.38;;;17.25;89.98
26807;BME280;14380;49.910;6.792;2022-07-29T01:38:38;98600.00;;;17.16;89.09
26807;BME280;14380;49.910;6.792;2022-07-29T01:41:08;98601.50;;;17.30;87.27
26807;BME280;14380;49.910;6.792;2022-07-29T01:43:38;98589.91;;;17.41;86.60
26807;BME280;14380;49.910;6.792;2022-07-29T01:46:11;98602.88;;;17.24;87.15
26807;BME280;14380;49.910;6.792;2022-07-29T01:48:47;98603.72;;;17.25;88.40
26807;BME280;14380;49.910;6.792;2022-07-29T01:51:19;98608.72;;;16.97;90.72
26807;BME280;14380;49.910;6.792;2022-07-29T01:53:50;98600.16;;;17.15;89.27
26807;BME280;14380;49.910;6.792;2022-07-29T01:56:21;98601.19;;;17.02;91.49
26807;BME280;14380;49.910;6.792;2022-07-29T01:58:49;98596.38;;;17.17;89.52
26807;BME280;14380;49.910;6.792;2022-07-29T02:01:21;98596.56;;;17.26;88.85
26807;BME280;14380;49.910;6.792;2022-07-29T02:03:50;98595.00;;;17.23;87.70
26807;BME280;14380;49.910;6.792;2022-07-29T02:06:19;98599.31;;;16.82;92.19
26807;BME280;14380;49.910;6.792;2022-07-29T02:08:47;98599.50;;;17.01;89.50
26807;BME280;14380;49.910;6.792;2022-07-29T02:11:14;98602.59;;;16.85;91.03
26807;BME280;14380;49.910;6.792;2022-07-29T02:13:41;98599.66;;;17.00;90.31
26807;BME280;14380;49.910;6.792;2022-07-29T02:16:10;98599.19;;;16.83;91.61
26807;BME280;14380;49.910;6.792;2022-07-29T02:18:41;98593.81;;;16.94;90.47
26807;BME280;14380;49.910;6.792;2022-07-29T02:21:11;98598.09;;;16.86;91.14
26807;BME280;14380;49.910;6.792;2022-07-29T02:23:38;98601.25;;;16.79;91.79
26807;BME280;14380;49.910;6.792;2022-07-29T02:26:07;98599.41;;;16.70;94.23
26807;BME280;14380;49.910;6.792;2022-07-29T02:28:35;98599.56;;;16.78;93.68
26807;BME280;14380;49.910;6.792;2022-07-29T02:31:03;98598.41;;;16.71;94.90
26807;BME280;14380;49.910;6.792;2022-07-29T02:33:31;98594.31;;;17.00;91.31
26807;BME280;14380;49.910;6.792;2022-07-29T02:36:02;98597.97;;;16.87;93.29
26807;BME280;14380;49.910;6.792;2022-07-29T02:38:30;98598.94;;;16.86;94.06
26807;BME280;14380;49.910;6.792;2022-07-29T02:41:20;98597.81;;;16.68;94.67
26807;BME280;14380;49.910;6.792;2022-07-29T02:43:53;98591.28;;;16.60;95.32
26807;BME280;14380;49.910;6.792;2022-07-29T02:46:27;98591.56;;;16.78;93.94
26807;BME280;14380;49.910;6.792;2022-07-29T02:48:58;98595.91;;;16.58;94.69
26807;BME280;14380;49.910;6.792;2022-07-29T02:51:31;98593.19;;;16.70;93.40
26807;BME280;14380;49.910;6.792;2022-07-29T02:54:01;98600.66;;;16.55;94.47
26807;BME280;14380;49.910;6.792;2022-07-29T02:56:32;98598.31;;;16.61;93.60
26807;BME280;14380;49.910;6.792;2022-07-29T02:59:03;98601.13;;;16.60;93.49
26807;BME280;14380;49.910;6.792;2022-07-29T03:01:32;98590.72;;;16.57;93.38
26807;BME280;14380;49.910;6.792;2022-07-29T03:04:03;98594.03;;;16.49;92.97
26807;BME280;14380;49.910;6.792;2022-07-29T03:06:32;98599.25;;;16.39;94.89
26807;BME280;14380;49.910;6.792;2022-07-29T03:09:00;98602.97;;;16.04;98.03
26807;BME280;14380;49.910;6.792;2022-07-29T03:11:28;98600.31;;;15.93;99.42
26807;BME280;14380;49.910;6.792;2022-07-29T03:13:56;98592.28;;;16.27;95.53
26807;BME280;14380;49.910;6.792;2022-07-29T03:16:23;98599.22;;;16.07;96.51
26807;BME280;14380;49.910;6.792;2022-07-29T03:18:51;98601.56;;;16.32;94.63
26807;BME280;14380;49.910;6.792;2022-07-29T03:21:18;98598.22;;;16.19;95.26
26807;BME280;14380;49.910;6.792;2022-07-29T03:23:46;98600.53;;;16.24;94.45
26807;BME280;14380;49.910;6.792;2022-07-29T03:26:13;98599.56;;;16.13;94.51
26807;BME280;14380;49.910;6.792;2022-07-29T03:28:40;98597.59;;;16.27;93.01
26807;BME280;14380;49.910;6.792;2022-07-29T03:31:07;98597.38;;;16.18;93.84
26807;BME280;14380;49.910;6.792;2022-07-29T03:33:33;98597.75;;;16.14;93.00
26807;BME280;14380;49.910;6.792;2022-07-29T03:36:00;98601.41;;;16.01;94.20
26807;BME280;14380;49.910;6.792;2022-07-29T03:38:29;98602.72;;;16.07;92.74
26807;BME280;14380;49.910;6.792;2022-07-29T03:41:00;98599.44;;;16.15;91.83
26807;BME280;14380;49.910;6.792;2022-07-29T03:43:30;98602.34;;;16.12;92.19
26807;BME280;14380;49.910;6.792;2022-07-29T03:45:59;98608.88;;;16.19;92.28
26807;BME280;14380;49.910;6.792;2022-07-29T03:48:26;98604.41;;;16.19;91.50
26807;BME280;14380;49.910;6.792;2022-07-29T03:50:55;98602.72;;;16.18;90.61
26807;BME280;14380;49.910;6.792;2022-07-29T03:53:22;98602.22;;;16.13;91.29
26807;BME280;14380;49.910;6.792;2022-07-29T03:55:53;98600.28;;;16.27;90.26
26807;BME280;14380;49.910;6.792;2022-07-29T03:58:23;98597.84;;;16.24;89.82
26807;BME280;14380;49.910;6.792;2022-07-29T04:00:52;98600.53;;;16.12;90.35
26807;BME280;14380;49.910;6.792;2022-07-29T04:03:19;98604.91;;;16.13;91.16
26807;BME280;14380;49.910;6.792;2022-07-29T04:05:58;98606.09;;;16.20;90.63
26807;BME280;14380;49.910;6.792;2022-07-29T04:08:25;98597.97;;;16.22;90.03
26807;BME280;14380;49.910;6.792;2022-07-29T04:10:52;98600.03;;;16.30;89.39
26807;BME280;14380;49.910;6.792;2022-07-29T04:13:18;98600.53;;;16.24;90.33
26807;BME280;14380;49.910;6.792;2022-07-29T04:15:47;98602.22;;;16.13;91.91
26807;BME280;14380;49.910;6.792;2022-07-29T04:18:13;98604.75;;;16.26;91.16
26807;BME280;14380;49.910;6.792;2022-07-29T04:20:40;98601.97;;;16.28;89.92
26807;BME280;14380;49.910;6.792;2022-07-29T04:23:07;98599.50;;;16.36;89.13
26807;BME280;14380;49.910;6.792;2022-07-29T04:25:36;98606.53;;;16.37;88.84
26807;BME280;14380;49.910;6.792;2022-07-29T04:28:04;98605.84;;;16.56;87.85
26807;BME280;14380;49.910;6.792;2022-07-29T04:30:32;98604.50;;;16.62;87.41
26807;BME280;14380;49.910;6.792;2022-07-29T04:33:02;98609.34;;;16.68;86.61
26807;BME280;14380;49.910;6.792;2022-07-29T04:35:29;98609.69;;;16.63;86.55
26807;BME280;14380;49.910;6.792;2022-07-29T04:37:56;98617.16;;;16.48;87.53
26807;BME280;14380;49.910;6.792;2022-07-29T04:40:23;98615.69;;;16.56;86.61
26807;BME280;14380;49.910;6.792;2022-07-29T04:42:50;98626.47;;;16.54;86.61
26807;BME280;14380;49.910;6.792;2022-07-29T04:45:16;98624.91;;;16.40;87.60
26807;BME280;14380;49.910;6.792;2022-07-29T04:47:43;98628.94;;;16.34;89.41
26807;BME280;14380;49.910;6.792;2022-07-29T04:50:11;98630.16;;;16.42;87.99
26807;BME280;14380;49.910;6.792;2022-07-29T04:52:38;98632.59;;;16.33;89.17
26807;BME280;14380;49.910;6.792;2022-07-29T04:55:05;98633.16;;;16.37;89.41
26807;BME280;14380;49.910;6.792;2022-07-29T04:57:32;98636.84;;;16.25;90.61
26807;BME280;14380;49.910;6.792;2022-07-29T04:59:59;98635.63;;;16.29;90.17
26807;BME280;14380;49.910;6.792;2022-07-29T05:02:26;98637.78;;;16.35;89.88
26807;BME280;14380;49.910;6.792;2022-07-29T05:04:53;98641.28;;;16.35;90.31
26807;BME280;14380;49.910;6.792;2022-07-29T05:07:21;98641.28;;;16.35;90.81
26807;BME280;14380;49.910;6.792;2022-07-29T05:09:47;98642.91;;;16.59;88.24
26807;BME280;14380;49.910;6.792;2022-07-29T05:12:14;98639.16;;;16.62;88.66
26807;BME280;14380;49.910;6.792;2022-07-29T05:14:41;98648.47;;;16.68;87.95
26807;BME280;14380;49.910;6.792;2022-07-29T05:17:07;98638.25;;;16.73;87.49
26807;BME280;14380;49.910;6.792;2022-07-29T05:19:34;98633.53;;;16.76;87.88
26807;BME280;14380;49.910;6.792;2022-07-29T05:22:01;98642.50;;;16.75;87.74
26807;BME280;14380;49.910;6.792;2022-07-29T05:24:29;98641.78;;;17.06;87.51
26807;BME280;14380;49.910;6.792;2022-07-29T05:26:56;98635.16;;;17.74;85.71
26807;BME280;14380;49.910;6.792;2022-07-29T05:29:22;98646.34;;;18.30;84.39
26807;BME280;14380;49.910;6.792;2022-07-29T05:31:49;98650.66;;;19.11;83.29
26807;BME280;14380;49.910;6.792;2022-07-29T05:34:17;98652.69;;;19.46;79.33
26807;BME280;14380;49.910;6.792;2022-07-29T05:36:44;98647.25;;;19.76;76.91
26807;BME280;14380;49.910;6.792;2022-07-29T05:39:10;98644.97;;;19.91;76.94
26807;BME280;14380;49.910;6.792;2022-07-29T05:41:39;98648.81;;;19.69;76.83
26807;BME280;14380;49.910;6.792;2022-07-29T05:44:06;98653.38;;;19.49;79.44
26807;BME280;14380;49.910;6.792;2022-07-29T05:46:33;98650.91;;;19.27;78.22
26807;BME280;14380;49.910;6.792;2022-07-29T05:48:59;98655.41;;;19.27;80.34
26807;BME280;14380;49.910;6.792;2022-07-29T05:51:28;98660.91;;;19.25;78.55
26807;BME280;14380;49.910;6.792;2022-07-29T05:53:55;98662.59;;;19.26;84.31
26807;BME280;14380;49.910;6.792;2022-07-29T05:56:21;98659.66;;;19.77;79.77
26807;BME280;14380;49.910;6.792;2022-07-29T05:58:50;98658.22;;;19.35;82.50
26807;BME280;14380;49.910;6.792;2022-07-29T06:01:16;98659.97;;;20.12;80.75
26807;BME280;14380;49.910;6.792;2022-07-29T06:03:43;98665.09;;;20.51;79.79
26807;BME280;14380;49.910;6.792;2022-07-29T06:06:10;98653.03;;;21.01;76.70
26807;BME280;14380;49.910;6.792;2022-07-29T06:08:38;98661.09;;;21.19;74.32
26807;BME280;14380;49.910;6.792;2022-07-29T06:11:05;98659.00;;;21.58;75.83
26807;BME280;14380;49.910;6.792;2022-07-29T06:13:33;98653.56;;;22.10;73.05
26807;BME280;14380;49.910;6.792;2022-07-29T06:16:01;98659.38;;;22.32;69.44
26807;BME280;14380;49.910;6.792;2022-07-29T06:18:27;98652.56;;;22.03;71.03
26807;BME280;14380;49.910;6.792;2022-07-29T06:20:54;98653.75;;;22.60;69.23
26807;BME280;14380;49.910;6.792;2022-07-29T06:23:21;98656.47;;;22.68;66.48
26807;BME280;14380;49.910;6.792;2022-07-29T06:25:48;98654.50;;;22.95;65.72
26807;BME280;14380;49.910;6.792;2022-07-29T06:28:14;98654.19;;;23.40;63.60
26807;BME280;14380;49.910;6.792;2022-07-29T06:30:41;98665.09;;;23.22;61.35
26807;BME280;14380;49.910;6.792;2022-07-29T06:33:09;98666.63;;;23.16;61.15
26807;BME280;14380;49.910;6.792;2022-07-29T06:35:36;98669.84;;;23.36;61.47
26807;BME280;14380;49.910;6.792;2022-07-29T06:38:04;98667.75;;;23.63;62.03
26807;BME280;14380;49.910;6.792;2022-07-29T06:40:31;98656.53;;;24.08;59.89
26807;BME280;14380;49.910;6.792;2022-07-29T06:43:15;98664.44;;;23.61;58.47
26807;BME280;14380;49.910;6.792;2022-07-29T06:45:41;98666.41;;;23.67;60.36
26807;BME280;14380;49.910;6.792;2022-07-29T06:48:10;98669.28;;;22.99;60.29
26807;BME280;14380;49.910;6.792;2022-07-29T06:50:37;98661.41;;;23.56;60.92
26807;BME280;14380;49.910;6.792;2022-07-29T06:53:05;98661.88;;;23.68;58.75
26807;BME280;14380;49.910;6.792;2022-07-29T06:55:31;98657.06;;;24.03;57.97
26807;BME280;14380;49.910;6.792;2022-07-29T06:57:58;98655.56;;;24.40;57.60
26807;BME280;14380;49.910;6.792;2022-07-29T07:00:25;98662.59;;;24.49;58.27
26807;BME280;14380;49.910;6.792;2022-07-29T07:02:51;98664.88;;;24.29;60.15
26807;BME280;14380;49.910;6.792;2022-07-29T07:05:19;98668.59;;;24.28;58.70
26807;BME280;14380;49.910;6.792;2022-07-29T07:07:46;98671.63;;;24.65;60.34
26807;BME280;14380;49.910;6.792;2022-07-29T07:10:13;98670.06;;;24.39;58.84
26807;BME280;14380;49.910;6.792;2022-07-29T07:12:40;98671.28;;;24.68;60.47
26807;BME280;14380;49.910;6.792;2022-07-29T07:15:07;98673.22;;;24.83;58.43
26807;BME280;14380;49.910;6.792;2022-07-29T07:17:34;98671.16;;;25.31;57.66
26807;BME280;14380;49.910;6.792;2022-07-29T07:20:00;98674.78;;;25.23;58.24
26807;BME280;14380;49.910;6.792;2022-07-29T07:22:28;98682.59;;;24.63;57.94
26807;BME280;14380;49.910;6.792;2022-07-29T07:24:55;98674.13;;;24.98;58.10
26807;BME280;14380;49.910;6.792;2022-07-29T07:27:22;98677.13;;;25.03;58.04
26807;BME280;14380;49.910;6.792;2022-07-29T07:29:48;98671.34;;;25.30;57.31
26807;BME280;14380;49.910;6.792;2022-07-29T07:32:15;98678.66;;;25.21;57.33
26807;BME280;14380;49.910;6.792;2022-07-29T07:34:42;98681.63;;;25.11;57.40
26807;BME280;14380;49.910;6.792;2022-07-29T07:37:09;98681.91;;;25.16;58.44
26807;BME280;14380;49.910;6.792;2022-07-29T07:39:37;98685.19;;;25.12;57.18
26807;BME280;14380;49.910;6.792;2022-07-29T07:42:04;98678.13;;;25.26;55.90
26807;BME280;14380;49.910;6.792;2022-07-29T07:44:30;98675.91;;;25.06;57.14
26807;BME280;14380;49.910;6.792;2022-07-29T07:46:57;98669.75;;;25.74;56.22
26807;BME280;14380;49.910;6.792;2022-07-29T07:49:24;98670.38;;;25.46;57.35
26807;BME280;14380;49.910;6.792;2022-07-29T07:51:50;98670.47;;;25.52;56.97
26807;BME280;14380;49.910;6.792;2022-07-29T07:54:17;98666.88;;;25.60;56.61
26807;BME280;14380;49.910;6.792;2022-07-29T07:56:45;98673.31;;;25.74;56.21
26807;BME280;14380;49.910;6.792;2022-07-29T07:59:14;98668.00;;;25.66;56.23
26807;BME280;14380;49.910;6.792;2022-07-29T08:01:40;98664.72;;;25.86;56.69
26807;BME280;14380;49.910;6.792;2022-07-29T08:04:07;98667.63;;;25.84;56.86
26807;BME280;14380;49.910;6.792;2022-07-29T08:06:34;98664.56;;;25.87;55.79
26807;BME280;14380;49.910;6.792;2022-07-29T08:09:01;98657.19;;;26.26;55.34
26807;BME280;14380;49.910;6.792;2022-07-29T08:11:28;98662.41;;;26.27;55.38
26807;BME280;14380;49.910;6.792;2022-07-29T08:13:56;98660.75;;;26.63;55.51
26807;BME280;14380;49.910;6.792;2022-07-29T08:16:23;98663.50;;;26.33;55.42
26807;BME280;14380;49.910;6.792;2022-07-29T08:18:51;98659.44;;;26.81;56.04
26807;BME280;14380;49.910;6.792;2022-07-29T08:21:22;98667.06;;;26.34;54.94
26807;BME280;14380;49.910;6.792;2022-07-29T08:23:50;98662.78;;;27.20;55.15
26807;BME280;14380;49.910;6.792;2022-07-29T08:26:18;98658.59;;;27.45;54.51
26807;BME280;14380;49.910;6.792;2022-07-29T08:28:47;98652.22;;;27.31;53.01
26807;BME280;14380;49.910;6.792;2022-07-29T08:31:17;98661.78;;;27.27;54.08
26807;BME280;14380;49.910;6.792;2022-07-29T08:33:44;98655.56;;;26.83;54.70
26807;BME280;14380;49.910;6.792;2022-07-29T08:36:11;98653.16;;;27.67;53.84
26807;BME280;14380;49.910;6.792;2022-07-29T08:38:38;98659.69;;;27.23;52.67
26807;BME280;14380;49.910;6.792;2022-07-29T08:41:05;98661.69;;;26.92;54.32
26807;BME280;14380;49.910;6.792;2022-07-29T08:43:31;98655.91;;;27.74;52.20
26807;BME280;14380;49.910;6.792;2022-07-29T08:46:00;98658.34;;;28.39;50.73
26807;BME280;14380;49.910;6.792;2022-07-29T08:48:29;98654.72;;;28.81;50.86
26807;BME280;14380;49.910;6.792;2022-07-29T08:50:56;98658.41;;;28.66;52.04
26807;BME280;14380;49.910;6.792;2022-07-29T08:53:26;98658.13;;;27.99;52.60
26807;BME280;14380;49.910;6.792;2022-07-29T08:55:54;98654.81;;;28.45;51.71
26807;BME280;14380;49.910;6.792;2022-07-29T08:58:22;98654.34;;;29.11;50.93
26807;BME280;14380;49.910;6.792;2022-07-29T09:00:51;98653.72;;;29.76;49.14
26807;BME280;14380;49.910;6.792;2022-07-29T09:03:20;98657.06;;;29.51;49.48
26807;BME280;14380;49.910;6.792;2022-07-29T09:05:50;98651.19;;;28.87;50.84
26807;BME280;14380;49.910;6.792;2022-07-29T09:08:18;98652.41;;;28.77;50.83
26807;BME280;14380;49.910;6.792;2022-07-29T09:10:45;98647.31;;;28.54;50.50
26807;BME280;14380;49.910;6.792;2022-07-29T09:13:12;98655.22;;;27.65;51.30
26807;BME280;14380;49.910;6.792;2022-07-29T09:15:38;98648.28;;;28.33;51.65
26807;BME280;14380;49.910;6.792;2022-07-29T09:18:05;98655.03;;;28.02;51.37
26807;BME280;14380;49.910;6.792;2022-07-29T09:20:32;98655.75;;;27.54;52.01
26807;BME280;14380;49.910;6.792;2022-07-29T09:23:14;98657.84;;;27.30;52.34
26807;BME280;14380;49.910;6.792;2022-07-29T09:25:41;98648.63;;;27.74;51.92
26807;BME280;14380;49.910;6.792;2022-07-29T09:28:09;98643.31;;;27.59;51.98
26807;BME280;14380;49.910;6.792;2022-07-29T09:30:43;98641.13;;;27.77;53.24
26807;BME280;14380;49.910;6.792;2022-07-29T09:33:16;98640.47;;;27.46;52.59
26807;BME280;14380;49.910;6.792;2022-07-29T09:35:43;98639.75;;;27.59;51.92
26807;BME280;14380;49.910;6.792;2022-07-29T09:38:11;98640.97;;;27.92;52.65
26807;BME280;14380;49.910;6.792;2022-07-29T09:40:39;98646.78;;;28.17;52.44
26807;BME280;14380;49.910;6.792;2022-07-29T09:43:10;98646.78;;;28.24;51.78
26807;BME280;14380;49.910;6.792;2022-07-29T09:45:37;98643.22;;;28.78;50.23
26807;BME280;14380;49.910;6.792;2022-07-29T09:48:13;98640.03;;;28.68;51.36
26807;BME280;14380;49.910;6.792;2022-07-29T09:50:41;98635.94;;;29.06;49.78
26807;BME280;14380;49.910;6.792;2022-07-29T09:53:09;98639.50;;;29.60;49.58
26807;BME280;14380;49.910;6.792;2022-07-29T09:55:47;98639.63;;;29.92;49.14
26807;BME280;14380;49.910;6.792;2022-07-29T09:58:16;98629.81;;;30.44;48.33
26807;BME280;14380;49.910;6.792;2022-07-29T10:00:44;98633.06;;;30.20;49.36
26807;BME280;14380;49.910;6.792;2022-07-29T10:03:12;98638.44;;;29.28;49.96
26807;BME280;14380;49.910;6.792;2022-07-29T10:05:39;98631.09;;;28.81;50.42
26807;BME280;14380;49.910;6.792;2022-07-29T10:08:08;98631.97;;;29.29;49.55
26807;BME280;14380;49.910;6.792;2022-07-29T10:10:36;98634.47;;;29.23;49.61
26807;BME280;14380;49.910;6.792;2022-07-29T10:13:07;98636.75;;;29.27;50.38
26807;BME280;14380;49.910;6.792;2022-07-29T10:15:37;98634.47;;;29.17;49.44
26807;BME280;14380;49.910;6.792;2022-07-29T10:18:06;98626.97;;;30.25;48.61
26807;BME280;14380;49.910;6.792;2022-07-29T10:20:34;98626.44;;;29.96;47.87
26807;BME280;14380;49.910;6.792;2022-07-29T10:23:01;98624.88;;;29.55;48.57
26807;BME280;14380;49.910;6.792;2022-07-29T10:25:27;98627.06;;;30.05;47.84
26807;BME280;14380;49.910;6.792;2022-07-29T10:27:54;98634.03;;;29.67;48.55
26807;BME280;14380;49.910;6.792;2022-07-29T10:30:23;98625.22;;;30.83;47.56
26807;BME280;14380;49.910;6.792;2022-07-29T10:33:10;98628.63;;;29.47;48.05
26807;BME280;14380;49.910;6.792;2022-07-29T10:35:52;98630.69;;;29.72;47.78
26807;BME280;14380;49.910;6.792;2022-07-29T10:38:47;98628.16;;;30.36;47.82
26807;BME280;14380;49.910;6.792;2022-07-29T10:41:29;98624.19;;;29.73;47.92
26807;BME280;14380;49.910;6.792;2022-07-29T10:44:01;98630.69;;;30.31;47.76
26807;BME280;14380;49.910;6.792;2022-07-29T10:46:34;98620.78;;;30.43;47.45
26807;BME280;14380;49.910;6.792;2022-07-29T10:49:06;98616.94;;;30.19;47.75
26807;BME280;14380;49.910;6.792;2022-07-29T10:52:01;98619.28;;;30.08;48.02
26807;BME280;14380;49.910;6.792;2022-07-29T10:54:43;98612.00;;;30.02;48.06
26807;BME280;14380;49.910;6.792;2022-07-29T10:57:20;98615.84;;;29.34;47.86
26807;BME280;14380;49.910;6.792;2022-07-29T10:59:49;98616.47;;;29.56;46.91
26807;BME280;14380;49.910;6.792;2022-07-29T11:02:42;98604.41;;;30.50;46.68
26807;BME280;14380;49.910;6.792;2022-07-29T11:05:11;98602.00;;;30.74;44.54
26807;BME280;14380;49.910;6.792;2022-07-29T11:08:15;98607.69;;;30.65;44.45
26807;BME280;14380;49.910;6.792;2022-07-29T11:10:26;98601.66;;;30.89;45.13
26807;BME280;14380;49.910;6.792;2022-07-29T11:12:53;98606.28;;;31.20;42.97
26807;BME280;14380;49.910;6.792;2022-07-29T11:15:20;98593.59;;;31.51;42.46
26807;BME280;14380;49.910;6.792;2022-07-29T11:18:08;98599.03;;;31.33;43.22
26807;BME280;14380;49.910;6.792;2022-07-29T11:20:38;98603.19;;;30.46;43.87
26807;BME280;14380;49.910;6.792;2022-07-29T11:23:20;98601.31;;;31.10;43.39
26807;BME280;14380;49.910;6.792;2022-07-29T11:26:17;98605.47;;;31.38;42.94
26807;BME280;14380;49.910;6.792;2022-07-29T11:28:53;98610.09;;;31.12;44.21
26807;BME280;14380;49.910;6.792;2022-07-29T11:31:32;98601.94;;;30.80;43.34
26807;BME280;14380;49.910;6.792;2022-07-29T11:34:26;98601.31;;;31.10;40.86
26807;BME280;14380;49.910;6.792;2022-07-29T11:37:24;98598.47;;;30.66;41.49
26807;BME280;14380;49.910;6.792;2022-07-29T11:40:14;98598.53;;;30.60;42.57
26807;BME280;14380;49.910;6.792;2022-07-29T11:42:43;98600.53;;;30.71;41.84
26807;BME280;14380;49.910;6.792;2022-07-29T11:45:12;98593.09;;;31.80;40.91
26807;BME280;14380;49.910;6.792;2022-07-29T11:47:41;98596.94;;;32.58;42.36
26807;BME280;14380;49.910;6.792;2022-07-29T11:50:12;98590.38;;;32.90;42.05
26807;BME280;14380;49.910;6.792;2022-07-29T11:52:40;98590.63;;;31.78;43.60
26807;BME280;14380;49.910;6.792;2022-07-29T11:55:13;98587.03;;;32.45;42.31
26807;BME280;14380;49.910;6.792;2022-07-29T11:57:45;98589.72;;;32.33;42.78
26807;BME280;14380;49.910;6.792;2022-07-29T12:00:21;98586.31;;;32.19;42.13
26807;BME280;14380;49.910;6.792;2022-07-29T12:02:48;98592.47;;;32.33;42.14
26807;BME280;14380;49.910;6.792;2022-07-29T12:05:17;98597.00;;;32.40;41.99
26807;BME280;14380;49.910;6.792;2022-07-29T12:07:44;98592.44;;;33.06;41.02
26807;BME280;14380;49.910;6.792;2022-07-29T12:10:11;98591.47;;;32.58;41.24
26807;BME280;14380;49.910;6.792;2022-07-29T12:12:38;98591.47;;;33.01;42.05
26807;BME280;14380;49.910;6.792;2022-07-29T12:15:13;98586.84;;;32.89;40.89
26807;BME280;14380;49.910;6.792;2022-07-29T12:17:40;98591.31;;;32.84;41.49
26807;BME280;14380;49.910;6.792;2022-07-29T12:20:07;98590.69;;;32.70;40.98
26807;BME280;14380;49.910;6.792;2022-07-29T12:22:36;98593.09;;;32.47;42.25
26807;BME280;14380;49.910;6.792;2022-07-29T12:25:06;98588.00;;;32.21;41.87
26807;BME280;14380;49.910;6.792;2022-07-29T12:27:33;98586.72;;;32.96;40.74
26807;BME280;14380;49.910;6.792;2022-07-29T12:30:01;98598.78;;;33.43;40.17
26807;BME280;14380;49.910;6.792;2022-07-29T12:32:33;98589.66;;;32.52;41.35
26807;BME280;14380;49.910;6.792;2022-07-29T12:35:03;98585.09;;;32.34;41.31
26807;BME280;14380;49.910;6.792;2022-07-29T12:37:30;98586.03;;;32.09;42.70
26807;BME280;14380;49.910;6.792;2022-07-29T12:39:59;98595.00;;;31.10;43.25
26807;BME280;14380;49.910;6.792;2022-07-29T12:42:26;98584.38;;;30.37;42.27
26807;BME280;14380;49.910;6.792;2022-07-29T12:44:52;98579.84;;;31.39;43.66
26807;BME280;14380;49.910;6.792;2022-07-29T12:47:20;98576.31;;;31.57;41.44
26807;BME280;14380;49.910;6.792;2022-07-29T12:49:47;98565.91;;;31.66;41.67
26807;BME280;14380;49.910;6.792;2022-07-29T12:52:27;98576.13;;;31.78;42.40
26807;BME280;14380;49.910;6.792;2022-07-29T12:54:54;98575.38;;;31.26;43.60
26807;BME280;14380;49.910;6.792;2022-07-29T12:57:22;98578.47;;;31.74;41.13
26807;BME280;14380;49.910;6.792;2022-07-29T13:00:01;98570.22;;;31.37;42.11
26807;BME280;14380;49.910;6.792;2022-07-29T13:02:28;98574.31;;;31.46;41.73
26807;BME280;14380;49.910;6.792;2022-07-29T13:04:56;98578.31;;;31.25;41.84
26807;BME280;14380;49.910;6.792;2022-07-29T13:07:27;98577.56;;;31.11;42.10
26807;BME280;14380;49.910;6.792;2022-07-29T13:09:58;98578.81;;;31.59;42.60
26807;BME280;14380;49.910;6.792;2022-07-29T13:12:37;98563.88;;;31.80;41.84